Time;durP1;ratioP1;P1;durP2;ratioP2;P2;SDS_P1;SDS_P2;PMS_P1;PMS_P2;Temp;Humidity;BMP_temperature;BMP_pressure;BME280_temperature;BME280_humidity;BME280_pressure;Samples;Min_cycle;Max_cycle;Signal;HPM_P1;HPM_P2
2022/04/04 00:02:21;;;;;;;17.17;12.10;;;-1.30;99.90;;;;;;5048094;28;20297;-85
2022/04/04 00:04:48;;;;;;;14.13;10.60;;;-1.30;99.90;;;;;;5061210;28;20281;-85
2022/04/04 00:07:15;;;;;;;12.90;10.82;;;-1.30;99.90;;;;;;5067667;28;20206;-85
2022/04/04 00:09:43;;;;;;;12.63;10.05;;;-1.30;99.90;;;;;;5067905;28;20223;-85
2022/04/04 00:12:13;;;;;;;14.32;10.35;;;-1.40;99.90;;;;;;5067630;28;20727;-86
2022/04/04 00:14:43;;;;;;;13.60;10.75;;;;;;;;;;5068015;28;20569;-85
2022/04/04 00:17:11;;;;;;;11.10;9.25;;;-1.40;99.90;;;;;;5067971;28;20206;-85
2022/04/04 00:19:38;;;;;;;10.98;9.10;;;-1.40;99.90;;;;;;5058322;28;20584;-85
2022/04/04 00:22:07;;;;;;;17.90;9.95;;;;;;;;;;5048510;28;20933;-85
2022/04/04 00:24:35;;;;;;;15.25;11.27;;;-1.50;99.90;;;;;;5049070;28;20223;-85
2022/04/04 00:27:04;;;;;;;13.52;10.35;;;-1.50;99.90;;;;;;5051938;28;20738;-85
2022/04/04 00:29:34;;;;;;;13.63;10.73;;;-1.50;99.90;;;;;;5052353;28;20196;-86
2022/04/04 00:32:01;;;;;;;13.75;10.40;;;-1.50;99.90;;;;;;5048000;28;20281;-85
2022/04/04 00:34:29;;;;;;;10.48;9.38;;;-1.40;99.90;;;;;;5047901;28;20288;-85
2022/04/04 00:36:56;;;;;;;13.40;9.52;;;-1.50;99.90;;;;;;5047187;28;20282;-86
2022/04/04 00:39:23;;;;;;;16.52;10.70;;;-1.60;99.90;;;;;;5047009;28;20219;-86
2022/04/04 00:41:50;;;;;;;15.07;9.40;;;-1.60;99.90;;;;;;5065731;28;20732;-85
2022/04/04 00:44:17;;;;;;;14.80;10.05;;;-1.60;99.90;;;;;;5067496;28;20278;-86
2022/04/04 00:46:45;;;;;;;15.85;10.82;;;-1.70;99.90;;;;;;5066946;28;20716;-86
2022/04/04 00:49:12;;;;;;;12.75;10.23;;;-1.70;99.90;;;;;;5070797;28;20257;-85
2022/04/04 00:51:40;;;;;;;11.90;9.25;;;;;;;;;;5070915;28;20314;-85
2022/04/04 00:54:08;;;;;;;13.95;10.18;;;;;;;;;;5070567;28;20210;-87
2022/04/04 00:56:36;;;;;;;13.68;9.77;;;-1.70;99.90;;;;;;5070861;28;20227;-85
2022/04/04 00:59:05;;;;;;;11.68;9.88;;;-1.80;99.90;;;;;;5070830;28;20300;-85
2022/04/04 01:01:32;;;;;;;14.85;9.95;;;-1.80;99.90;;;;;;5070301;28;20195;-86
2022/04/04 01:04:01;;;;;;;12.75;11.27;;;-1.90;99.90;;;;;;5059905;28;20199;-86
2022/04/04 01:06:28;;;;;;;12.88;10.70;;;-1.90;99.90;;;;;;5066275;28;20683;-86
2022/04/04 01:08:55;;;;;;;15.40;10.30;;;-2.00;99.90;;;;;;5050862;28;20204;-86
2022/04/04 01:11:23;;;;;;;11.38;9.38;;;-2.00;99.90;;;;;;5050991;28;20204;-85
2022/04/04 01:13:51;;;;;;;12.18;10.55;;;-1.90;99.90;;;;;;5050695;28;20196;-86
2022/04/04 01:16:18;;;;;;;12.23;9.73;;;;;;;;;;5050490;28;20200;-86
2022/04/04 01:18:45;;;;;;;13.75;9.23;;;-2.10;99.90;;;;;;5055704;28;20211;-87
2022/04/04 01:21:19;;;;;;;13.98;10.77;;;-2.10;99.90;;;;;;5070609;28;20531;-86
2022/04/04 01:23:50;;;;;;;17.45;11.70;;;-2.20;99.90;;;;;;5070597;28;20211;-86
2022/04/04 01:26:20;;;;;;;15.80;10.70;;;-2.10;99.90;;;;;;5070828;28;20211;-86
2022/04/04 01:28:48;;;;;;;13.13;10.05;;;-2.10;99.90;;;;;;5070540;28;20195;-86
2022/04/04 01:31:15;;;;;;;12.65;10.10;;;-2.10;99.90;;;;;;5070619;28;20282;-86
2022/04/04 01:33:42;;;;;;;12.95;9.95;;;-2.10;99.90;;;;;;5070377;28;20211;-86
2022/04/04 01:36:10;;;;;;;19.40;10.88;;;-2.00;99.90;;;;;;5070700;28;20286;-85
2022/04/04 01:38:38;;;;;;;12.73;9.30;;;-2.20;99.90;;;;;;5070542;28;20272;-86
2022/04/04 01:41:06;;;;;;;11.90;10.38;;;-1.60;99.90;;;;;;5071148;28;20804;-86
2022/04/04 01:43:34;;;;;;;14.93;10.52;;;-2.20;99.90;;;;;;5070264;28;20843;-86
2022/04/04 01:48:45;;;;;;;13.52;9.30;;;-2.10;99.90;;;;;;5070210;28;20191;-86
2022/04/04 01:51:12;;;;;;;11.23;7.95;;;-2.20;99.90;;;;;;5070022;28;20260;-86
2022/04/04 01:53:39;;;;;;;13.80;10.30;;;;;;;;;;5069912;28;20208;-85
2022/04/04 01:56:07;;;;;;;14.55;10.63;;;-2.20;99.90;;;;;;5069329;28;20261;-85
2022/04/04 01:58:36;;;;;;;12.88;10.00;;;-2.20;99.90;;;;;;5068798;28;20222;-85
2022/04/04 02:01:09;;;;;;;10.75;8.95;;;-2.20;99.90;;;;;;5068962;28;20286;-85
2022/04/04 02:03:36;;;;;;;9.95;8.93;;;;;;;;;;5069158;28;20299;-87
2022/04/04 02:06:04;;;;;;;12.27;10.23;;;-2.30;99.90;;;;;;5067811;28;20682;-86
2022/04/04 02:08:31;;;;;;;12.95;10.23;;;-2.30;99.90;;;;;;5069564;28;20282;-86
2022/04/04 02:10:58;;;;;;;12.23;8.85;;;-2.30;99.90;;;;;;5068966;28;20207;-85
2022/04/04 02:13:25;;;;;;;11.50;9.93;;;-2.40;99.90;;;;;;5069422;28;20253;-85
2022/04/04 02:15:54;;;;;;;11.55;9.02;;;-2.30;99.90;;;;;;5069234;28;20203;-86
2022/04/04 02:18:21;;;;;;;10.68;8.68;;;;;;;;;;5069092;28;20345;-85
2022/04/04 02:20:49;;;;;;;12.63;8.90;;;-2.30;99.60;;;;;;5067691;28;20314;-86
2022/04/04 02:23:18;;;;;;;12.02;9.35;;;-2.40;99.70;;;;;;5068768;28;20261;-86
2022/04/04 02:25:45;;;;;;;12.07;9.25;;;;;;;;;;5064271;28;20214;-86
2022/04/04 02:28:13;;;;;;;11.60;8.40;;;-2.40;99.50;;;;;;5063536;28;20232;-87
2022/04/04 02:30:40;;;;;;;11.63;9.93;;;-2.40;99.70;;;;;;5069725;28;20600;-86
2022/04/04 02:33:09;;;;;;;9.20;8.23;;;-2.40;99.80;;;;;;5069554;28;20260;-84
2022/04/04 02:35:36;;;;;;;10.73;8.82;;;;;;;;;;5068987;28;20203;-85
2022/04/04 02:38:03;;;;;;;13.80;9.55;;;-2.50;99.70;;;;;;5068845;28;20203;-86
2022/04/04 02:40:31;;;;;;;11.63;9.88;;;;;;;;;;5069491;28;20306;-86
2022/04/04 02:42:58;;;;;;;10.38;9.38;;;-2.60;99.50;;;;;;5069763;28;20238;-85
2022/04/04 02:45:25;;;;;;;11.07;8.18;;;-2.50;99.90;;;;;;5068875;28;20218;-86
2022/04/04 02:47:52;;;;;;;9.32;7.70;;;-2.50;99.90;;;;;;5069001;28;20223;-85
2022/04/04 02:50:20;;;;;;;11.07;9.07;;;-2.60;99.90;;;;;;5068335;28;20227;-85
2022/04/04 02:52:47;;;;;;;11.00;9.75;;;-2.60;99.90;;;;;;5070962;28;20609;-85
2022/04/04 02:57:58;;;;;;;10.98;9.02;;;-2.60;99.80;;;;;;5052033;28;20200;-86
2022/04/04 03:00:25;;;;;;;11.80;8.73;;;-2.60;99.90;;;;;;5049729;28;20314;-85
2022/04/04 03:02:53;;;;;;;10.32;9.00;;;-2.50;99.90;;;;;;5049174;28;20631;-86
2022/04/04 03:05:22;;;;;;;13.70;9.85;;;-2.60;99.90;;;;;;5066643;28;20269;-85
2022/04/04 03:07:50;;;;;;;12.77;9.60;;;-2.60;99.90;;;;;;5068950;28;20290;-86
2022/04/04 03:10:17;;;;;;;28.80;12.20;;;-2.60;99.90;;;;;;5049280;28;20204;-86
2022/04/04 03:12:48;;;;;;;13.80;10.05;;;-2.60;99.90;;;;;;5048814;28;20215;-85
2022/04/04 03:15:18;;;;;;;15.43;8.63;;;-2.60;99.90;;;;;;5049069;28;20211;-85
2022/04/04 03:17:47;;;;;;;10.27;9.15;;;-2.50;99.90;;;;;;5048651;28;20232;-85
2022/04/04 03:20:16;;;;;;;11.15;8.25;;;-2.60;99.90;;;;;;5049210;28;20270;-86
2022/04/04 03:22:46;;;;;;;10.18;8.45;;;-2.70;99.90;;;;;;5049108;28;20266;-86
2022/04/04 03:25:14;;;;;;;10.45;7.85;;;-2.60;99.60;;;;;;5068295;28;20207;-85
2022/04/04 03:27:43;;;;;;;11.30;9.15;;;-2.70;99.90;;;;;;5068546;28;20211;-87
2022/04/04 03:30:12;;;;;;;9.82;7.28;;;-2.70;99.50;;;;;;5068820;28;20204;-85
2022/04/04 03:32:40;;;;;;;10.10;8.45;;;-2.70;99.40;;;;;;5064622;28;20313;-86
2022/04/04 03:35:07;;;;;;;13.07;8.52;;;-2.70;99.50;;;;;;5068503;28;20282;-85
2022/04/04 03:37:36;;;;;;;10.50;9.38;;;-2.80;99.40;;;;;;5068417;28;20234;-86
2022/04/04 03:40:06;;;;;;;10.57;8.00;;;-2.80;99.90;;;;;;5068598;28;20211;-86
2022/04/04 03:42:34;;;;;;;14.77;8.63;;;-2.80;99.40;;;;;;5068058;28;20225;-85
2022/04/04 03:45:02;;;;;;;10.88;8.07;;;-2.80;99.40;;;;;;5058966;28;20613;-86
2022/04/04 03:47:29;;;;;;;10.00;8.95;;;-2.90;99.90;;;;;;5049317;28;20232;-86
2022/04/04 03:49:56;;;;;;;8.77;7.55;;;-2.70;99.80;;;;;;5069182;28;20203;-85
2022/04/04 03:52:23;;;;;;;11.00;8.63;;;;;;;;;;5068796;28;20215;-87
2022/04/04 03:54:50;;;;;;;12.73;9.77;;;;;;;;;;5068947;28;20307;-86
2022/04/04 03:57:18;;;;;;;10.50;8.45;;;-2.70;99.80;;;;;;5068622;28;20207;-86
2022/04/04 03:59:46;;;;;;;10.98;9.00;;;;;;;;;;5069280;28;20229;-86
2022/04/04 04:02:14;;;;;;;13.15;9.63;;;-2.70;99.90;;;;;;5069886;28;20207;-87
2022/04/04 04:04:41;;;;;;;11.35;8.57;;;;;;;;;;5074074;28;20203;-86
2022/04/04 04:07:10;;;;;;;10.85;8.55;;;-2.70;99.80;;;;;;5076308;28;20203;-86
2022/04/04 04:09:37;;;;;;;12.57;9.98;;;-2.70;99.90;;;;;;5071696;28;20247;-86
2022/04/04 04:12:05;;;;;;;12.60;8.05;;;-2.80;99.90;;;;;;5068984;28;20685;-86
2022/04/04 04:14:33;;;;;;;12.20;10.55;;;-2.80;99.90;;;;;;5069476;28;20243;-87
2022/04/04 04:17:00;;;;;;;12.45;8.52;;;;;;;;;;5069144;28;20207;-86
2022/04/04 04:22:11;;;;;;;10.25;9.00;;;-2.80;99.90;;;;;;5068868;28;20670;-86
2022/04/04 04:24:39;;;;;;;8.98;8.02;;;;;;;;;;5072644;28;20634;-86
2022/04/04 04:27:06;;;;;;;10.45;8.77;;;-2.70;99.90;;;;;;5072691;28;20215;-87
2022/04/04 04:29:34;;;;;;;11.15;9.38;;;-2.70;99.90;;;;;;5072758;28;20207;-86
2022/04/04 04:32:01;;;;;;;11.15;8.40;;;-2.10;99.90;;;;;;5072887;28;20286;-87
2022/04/04 04:34:28;;;;;;;11.63;7.80;;;;;;;;;;5072466;28;20207;-86
2022/04/04 04:36:56;;;;;;;11.25;8.80;;;;;;;;;;5065841;28;20249;-86
2022/04/04 04:39:23;;;;;;;11.25;8.48;;;-2.70;99.90;;;;;;5052641;28;20315;-87
2022/04/04 04:41:50;;;;;;;12.48;8.52;;;-2.70;99.90;;;;;;5071233;28;20922;-87
2022/04/04 04:44:17;;;;;;;13.32;9.70;;;;;;;;;;5072405;28;20195;-87
2022/04/04 04:46:45;;;;;;;12.68;9.65;;;-2.70;99.90;;;;;;5072313;28;20641;-87
2022/04/04 04:49:13;;;;;;;14.18;10.45;;;-2.70;99.90;;;;;;5071463;28;20209;-87
2022/04/04 04:51:40;;;;;;;13.68;10.18;;;-2.70;99.90;;;;;;5071809;28;20738;-87
2022/04/04 04:54:07;;;;;;;9.65;8.13;;;-2.70;99.90;;;;;;5072833;28;20210;-87
2022/04/04 04:56:34;;;;;;;11.95;9.18;;;-2.70;99.90;;;;;;5072396;28;20195;-88
2022/04/04 04:59:01;;;;;;;11.90;9.23;;;-2.70;99.90;;;;;;5072676;28;20210;-87
2022/04/04 05:01:28;;;;;;;20.58;8.65;;;;;;;;;;5072556;28;20706;-87
2022/04/04 05:03:57;;;;;;;11.50;9.07;;;-2.70;99.90;;;;;;5071790;28;20203;-87
2022/04/04 05:06:23;;;;;;;12.13;9.35;;;-2.70;99.90;;;;;;5072166;28;20655;-87
2022/04/04 05:08:50;;;;;;;10.63;9.07;;;-2.80;99.90;;;;;;5072292;28;20272;-88
2022/04/04 05:11:17;;;;;;;13.45;12.00;;;-2.80;99.90;;;;;;5072080;28;20218;-88
2022/04/04 05:13:45;;;;;;;13.05;10.35;;;;;;;;;;5072156;28;20205;-88
2022/04/04 05:16:14;;;;;;;14.05;10.15;;;-2.80;99.80;;;;;;5072200;28;20227;-87
2022/04/04 05:18:42;;;;;;;12.50;10.70;;;-2.70;99.90;;;;;;5070321;28;20221;-88
2022/04/04 05:21:12;;;;;;;17.67;9.30;;;-2.70;99.90;;;;;;5072381;28;20227;-88
2022/04/04 05:23:39;;;;;;;16.10;10.38;;;;;;;;;;5071811;28;20210;-88
2022/04/04 05:26:06;;;;;;;14.20;10.73;;;;;;;;;;5071419;28;20324;-88
2022/04/04 05:28:34;;;;;;;10.43;9.32;;;;;;;;;;5071653;28;20713;-87
2022/04/04 05:31:04;;;;;;;13.00;10.00;;;;;;;;;;5071304;28;20249;-88
2022/04/04 05:33:32;;;;;;;12.00;9.70;;;;;;;;;;5071379;28;20215;-88
2022/04/04 05:36:01;;;;;;;13.68;9.98;;;-2.50;99.90;;;;;;5070820;28;20235;-88
2022/04/04 05:38:30;;;;;;;16.13;11.10;;;-2.50;99.90;;;;;;5071229;28;20195;-88
2022/04/04 05:40:58;;;;;;;13.93;10.60;;;;;;;;;;5062928;28;20223;-88
2022/04/04 05:43:26;;;;;;;11.80;10.18;;;;;;;;;;5064311;28;20214;-88
2022/04/04 05:45:55;;;;;;;11.63;9.60;;;;;;;;;;5064297;28;20235;-88
2022/04/04 05:48:25;;;;;;;10.82;8.77;;;;;;;;;;5071226;28;20211;-88
2022/04/04 05:50:53;;;;;;;12.90;9.27;;;-2.30;99.50;;;;;;5064108;28;20286;-88
2022/04/04 05:53:21;;;;;;;14.13;8.98;;;;;;;;;;5070583;28;20278;-87
2022/04/04 05:55:49;;;;;;;12.23;9.20;;;-2.20;98.70;;;;;;5070391;28;20200;-88
2022/04/04 05:58:16;;;;;;;11.95;9.70;;;-2.50;99.30;;;;;;5061132;28;20888;-88
2022/04/04 06:00:43;;;;;;;11.52;8.85;;;-2.20;98.90;;;;;;5054643;28;20215;-89
2022/04/04 06:03:10;;;;;;;10.65;9.07;;;;;;;;;;5070755;28;20207;-90
2022/04/04 06:06:03;;;;;;;;;;;;;;;;;;;;;
2022/04/04 06:08:34;;;;;;;12.70;9.35;;;;;;;;;;5076885;28;20199;-91
2022/04/04 06:11:17;;;;;;;10.95;9.88;;;-4.00;97.50;;;;;;5072790;28;20809;-92
2022/04/04 06:13:58;;;;;;;11.00;8.77;;;-1.90;98.90;;;;;;5074470;28;20195;-91
2022/04/04 06:16:44;;;;;;;12.00;8.32;;;-1.80;98.80;;;;;;5069858;28;20292;-90
2022/04/04 06:19:16;;;;;;;13.27;9.80;;;-1.60;99.90;;;;;;5070192;28;20200;-91
2022/04/04 06:21:43;;;;;;;9.95;8.55;;;-1.40;99.90;;;;;;5065257;28;20251;-89
2022/04/04 06:24:11;;;;;;;12.57;9.05;;;;;;;;;;5071624;28;20199;-90
2022/04/04 06:26:40;;;;;;;14.68;9.70;;;-1.50;97.50;;;;;;5071324;28;20214;-89
2022/04/04 06:29:23;;;;;;;10.32;8.43;;;-1.30;97.60;;;;;;5071155;28;20242;-90
2022/04/04 06:31:56;;;;;;;13.57;10.23;;;-1.30;97.80;;;;;;5069447;28;20639;-91
2022/04/04 06:34:24;;;;;;;11.05;9.95;;;;;;;;;;5069239;28;20573;-90
2022/04/04 06:39:45;;;;;;;15.30;10.07;;;-1.10;98.10;;;;;;5066598;28;20195;-91
2022/04/04 06:42:20;;;;;;;10.23;8.43;;;-0.40;99.70;;;;;;5064523;28;20195;-91
2022/04/04 06:44:47;;;;;;;12.15;8.35;;;;;;;;;;5067950;28;20199;-89
2022/04/04 06:47:14;;;;;;;12.35;9.70;;;-0.80;97.60;;;;;;5065241;28;20211;-89
2022/04/04 06:49:42;;;;;;;11.90;9.30;;;-0.80;98.00;;;;;;5063268;28;20208;-89
2022/04/04 06:52:09;;;;;;;10.52;9.10;;;-0.70;98.10;;;;;;5065280;28;20993;-88
2022/04/04 06:54:36;;;;;;;12.75;8.63;;;-0.60;97.40;;;;;;5068558;28;20613;-87
2022/04/04 06:57:09;;;;;;;15.75;10.10;;;-0.50;99.90;;;;;;5068095;28;20207;-90
2022/04/04 06:59:37;;;;;;;11.05;9.00;;;-0.20;97.60;;;;;;5068923;28;20678;-88
2022/04/04 07:02:06;;;;;;;9.77;8.27;;;-0.30;97.40;;;;;;5067487;28;20227;-87
2022/04/04 07:04:33;;;;;;;11.77;9.30;;;-0.20;97.30;;;;;;5070276;28;20464;-87
2022/04/04 07:07:00;;;;;;;11.43;9.05;;;0.00;96.80;;;;;;5063695;28;20218;-87
2022/04/04 07:09:27;;;;;;;11.93;8.48;;;0.00;96.40;;;;;;5065844;28;20203;-88
2022/04/04 07:11:53;;;;;;;11.68;8.20;;;0.10;96.00;;;;;;5068698;28;20288;-88
2022/04/04 07:14:21;;;;;;;9.68;7.60;;;;;;;;;;5065348;28;20268;-87
2022/04/04 07:16:52;;;;;;;13.88;8.70;;;0.20;98.70;;;;;;5062562;28;20206;-88
2022/04/04 07:19:22;;;;;;;7.93;7.15;;;;;;;;;;5058478;28;20199;-87
2022/04/04 07:21:48;;;;;;;9.52;7.43;;;0.50;95.10;;;;;;5057573;28;20230;-88
2022/04/04 07:24:16;;;;;;;11.38;8.98;;;0.60;94.80;;;;;;5059026;28;20242;-87
2022/04/04 07:26:45;;;;;;;9.85;8.05;;;0.60;94.20;;;;;;5063419;28;20286;-89
2022/04/04 07:29:13;;;;;;;9.70;7.95;;;;;;;;;;5057227;28;20218;-88
2022/04/04 07:32:09;;;;;;;10.88;8.90;;;1.20;98.20;;;;;;5061679;28;20732;-90
2022/04/04 07:34:43;;;;;;;10.52;7.97;;;1.10;94.10;;;;;;5062573;28;20570;-89
2022/04/04 07:37:10;;;;;;;9.10;8.20;;;;;;;;;;5064009;28;20927;-89
2022/04/04 07:39:38;;;;;;;9.93;8.45;;;;;;;;;;5067277;28;20704;-88
2022/04/04 07:42:07;;;;;;;9.90;7.57;;;1.40;92.40;;;;;;5068418;28;20219;-88
2022/04/04 07:44:34;;;;;;;10.20;7.20;;;;;;;;;;5056815;28;20235;-88
2022/04/04 07:47:02;;;;;;;8.55;7.43;;;;;;;;;;5064583;28;20231;-88
2022/04/04 07:49:29;;;;;;;9.15;8.25;;;1.40;92.60;;;;;;5067515;28;20294;-88
2022/04/04 07:51:57;;;;;;;10.23;7.88;;;1.60;92.50;;;;;;5068019;28;20726;-87
2022/04/04 07:54:24;;;;;;;11.90;8.43;;;1.70;93.20;;;;;;5063152;28;20202;-87
2022/04/04 07:56:53;;;;;;;8.68;7.88;;;1.70;93.40;;;;;;5057680;28;20191;-87
2022/04/04 07:59:20;;;;;;;12.85;8.13;;;2.10;97.20;;;;;;5065892;28;20207;-88
2022/04/04 08:01:47;;;;;;;9.90;8.65;;;2.00;92.80;;;;;;5060151;28;20211;-87
2022/04/04 08:04:14;;;;;;;9.60;7.57;;;2.00;92.40;;;;;;5058814;28;20203;-87
2022/04/04 08:06:41;;;;;;;9.00;7.15;;;2.10;92.20;;;;;;5057703;28;20686;-87
2022/04/04 08:09:10;;;;;;;7.47;6.78;;;2.10;92.00;;;;;;5067737;28;20199;-86
2022/04/04 08:11:37;;;;;;;8.73;7.13;;;2.20;91.00;;;;;;5067289;28;20693;-87
2022/04/04 08:14:08;;;;;;;9.52;6.80;;;2.20;90.10;;;;;;5064564;28;20204;-88
2022/04/04 08:16:36;;;;;;;9.43;7.65;;;2.60;87.80;;;;;;5066102;28;20203;-87
2022/04/04 08:19:13;;;;;;;8.27;7.00;;;2.30;87.20;;;;;;5064942;28;20289;-88
2022/04/04 08:21:41;;;;;;;7.93;7.10;;;1.30;89.30;;;;;;5065941;28;20310;-88
2022/04/04 08:24:11;;;;;;;13.18;7.82;;;2.30;87.50;;;;;;5068056;28;20203;-87
2022/04/04 08:26:39;;;;;;;9.25;6.63;;;2.30;85.90;;;;;;5067467;28;20203;-89
2022/04/04 08:29:23;;;;;;;9.00;7.70;;;5.20;90.80;;;;;;5068222;28;20250;-90
2022/04/04 08:31:51;;;;;;;8.13;7.00;;;2.60;89.10;;;;;;5064736;28;20291;-89
2022/04/04 08:34:18;;;;;;;8.63;7.18;;;2.80;89.20;;;;;;5066987;28;20230;-88
2022/04/04 08:36:45;;;;;;;8.20;7.40;;;;;;;;;;5067122;28;20210;-89
2022/04/04 08:39:18;;;;;;;9.80;7.22;;;2.20;85.30;;;;;;5057139;28;20223;-88
2022/04/04 08:41:45;;;;;;;8.27;7.47;;;3.00;85.60;;;;;;5062868;28;20698;-88
2022/04/04 08:44:15;;;;;;;9.20;8.18;;;3.00;87.10;;;;;;5056772;28;20200;-89
2022/04/04 08:46:43;;;;;;;7.53;6.47;;;1.10;83.00;;;;;;5064053;28;20211;-89
2022/04/04 08:49:10;;;;;;;9.63;8.05;;;3.40;86.00;;;;;;5061482;28;20406;-89
2022/04/04 08:51:37;;;;;;;8.32;7.15;;;3.70;84.10;;;;;;5058871;28;20280;-89
2022/04/04 08:54:05;;;;;;;11.45;8.38;;;3.60;84.10;;;;;;5068154;28;20567;-89
2022/04/04 08:56:34;;;;;;;10.80;8.00;;;3.70;83.30;;;;;;5067253;28;20210;-89
2022/04/04 08:59:02;;;;;;;8.77;7.15;;;3.90;81.70;;;;;;5057235;28;20228;-89
2022/04/04 09:01:29;;;;;;;8.15;7.07;;;3.90;83.10;;;;;;5066404;28;20215;-88
2022/04/04 09:04:17;;;;;;;9.05;7.30;;;4.00;83.50;;;;;;5057361;28;20204;-89
2022/04/04 09:06:50;;;;;;;10.38;7.90;;;3.90;78.50;;;;;;5066050;28;20683;-88
2022/04/04 09:09:21;;;;;;;8.13;7.30;;;3.70;79.60;;;;;;5067404;28;20199;-89
2022/04/04 09:12:06;;;;;;;9.38;7.05;;;5.00;81.90;;;;;;5071903;28;20650;-89
2022/04/04 09:14:37;;;;;;;8.95;7.80;;;4.00;81.20;;;;;;5070063;28;20210;-88
2022/04/04 09:17:07;;;;;;;8.63;7.70;;;4.00;82.70;;;;;;5066400;28;20233;-88
2022/04/04 09:19:34;;;;;;;8.30;6.65;;;4.00;77.70;;;;;;5063634;28;20204;-88
2022/04/04 09:22:37;;;;;;;10.77;6.43;;;3.90;76.20;;;;;;5069593;28;20610;-89
2022/04/04 09:25:08;;;;;;;16.20;7.07;;;3.80;80.30;;;;;;5077307;28;20208;-88
2022/04/04 09:27:39;;;;;;;8.07;7.22;;;4.00;79.00;;;;;;5073592;28;20192;-87
2022/04/04 09:30:07;;;;;;;8.60;7.75;;;3.90;73.00;;;;;;5068582;28;20206;-86
2022/04/04 09:32:39;;;;;;;9.05;7.55;;;3.90;66.30;;;;;;5059734;28;20249;-85
2022/04/04 09:35:12;;;;;;;7.93;6.95;;;4.00;67.10;;;;;;5068875;28;20218;-85
2022/04/04 09:37:41;;;;;;;8.45;7.55;;;4.00;70.90;;;;;;5061907;28;20191;-85
2022/04/04 09:40:13;;;;;;;15.23;7.85;;;4.10;69.50;;;;;;5060125;28;20233;-85
2022/04/04 09:42:42;;;;;;;8.13;7.32;;;4.30;68.90;;;;;;5067109;28;20330;-85
2022/04/04 09:45:33;;;;;;;8.43;7.07;;;4.40;71.60;;;;;;5069975;28;20219;-89
2022/04/04 09:48:11;;;;;;;8.82;7.93;;;4.90;82.40;;;;;;5073488;28;20203;-88
2022/04/04 09:50:43;;;;;;;9.80;7.13;;;4.50;74.00;;;;;;5069967;28;20310;-84
2022/04/04 09:53:13;;;;;;;8.25;7.45;;;4.70;71.30;;;;;;5069372;28;20203;-84
2022/04/04 09:55:43;;;;;;;8.85;7.95;;;4.80;66.90;;;;;;5069313;28;20293;-84
2022/04/04 09:58:15;;;;;;;8.05;7.25;;;4.70;68.00;;;;;;5067966;28;20769;-83
2022/04/04 10:00:44;;;;;;;7.82;6.68;;;5.00;69.70;;;;;;5070186;28;20291;-85
2022/04/04 10:03:13;;;;;;;7.30;6.57;;;5.10;70.20;;;;;;5064284;28;20639;-83
2022/04/04 10:05:42;;;;;;;9.70;7.38;;;5.00;68.40;;;;;;5071055;28;20610;-83
2022/04/04 10:08:13;;;;;;;7.57;6.88;;;5.00;69.40;;;;;;5071153;28;20211;-83
2022/04/04 10:10:40;;;;;;;8.75;7.93;;;5.10;69.30;;;;;;5071255;28;20662;-83
2022/04/04 10:13:08;;;;;;;9.77;6.70;;;5.00;67.10;;;;;;5067485;28;20230;-83
2022/04/04 10:15:37;;;;;;;8.40;7.18;;;4.90;81.20;;;;;;5069596;28;20207;-84
2022/04/04 10:18:05;;;;;;;9.18;8.30;;;5.00;68.50;;;;;;5069703;28;20692;-84
2022/04/04 10:20:32;;;;;;;9.13;8.25;;;4.90;69.90;;;;;;5068717;28;20541;-85
2022/04/04 10:23:00;;;;;;;7.45;6.75;;;5.10;71.40;;;;;;5070407;28;20753;-85
2022/04/04 10:25:29;;;;;;;14.40;8.82;;;5.30;70.80;;;;;;5067638;28;20203;-84
2022/04/04 10:27:56;;;;;;;9.80;8.80;;;5.50;73.20;;;;;;5070720;28;20268;-84
2022/04/04 10:30:33;;;;;;;8.93;7.72;;;5.70;72.80;;;;;;5066954;28;20260;-84
2022/04/04 10:33:02;;;;;;;9.38;8.48;;;5.90;69.60;;;;;;5064513;28;20227;-83
2022/04/04 10:35:31;;;;;;;10.45;8.02;;;5.80;86.70;;;;;;5066541;28;20300;-83
2022/04/04 10:38:03;;;;;;;10.68;8.35;;;5.60;73.70;;;;;;5069858;28;20285;-83
2022/04/04 10:40:32;;;;;;;8.65;7.72;;;5.50;68.90;;;;;;5062413;28;20212;-84
2022/04/04 10:43:12;;;;;;;8.60;7.10;;;5.30;83.00;;;;;;5069210;28;20308;-83
2022/04/04 10:45:56;;;;;;;8.35;7.43;;;5.30;70.80;;;;;;5062078;28;20293;-83
2022/04/04 10:48:31;;;;;;;8.85;7.28;;;5.50;70.50;;;;;;5070136;28;20214;-84
2022/04/04 10:51:11;;;;;;;7.80;7.00;;;5.90;71.60;;;;;;5069943;28;20249;-85
2022/04/04 10:53:41;;;;;;;7.70;6.78;;;6.20;70.20;;;;;;5065746;28;20209;-84
2022/04/04 10:56:12;;;;;;;8.27;6.50;;;6.10;66.10;;;;;;5062982;28;20458;-86
2022/04/04 10:58:39;;;;;;;7.25;6.65;;;6.20;64.70;;;;;;5061724;28;20199;-85
2022/04/04 11:01:15;;;;;;;8.10;6.43;;;5.90;61.40;;;;;;5067317;28;20203;-86
2022/04/04 11:03:58;;;;;;;9.52;5.70;;;6.30;63.30;;;;;;5071554;28;20207;-87
2022/04/04 11:09:46;;;;;;;7.70;5.82;;;5.60;77.30;;;;;;5068815;28;20199;-89
2022/04/04 11:12:15;;;;;;;11.02;6.43;;;5.90;62.40;;;;;;5070793;28;20677;-88
2022/04/04 11:15:24;;;;;;;6.70;6.10;;;6.00;79.10;;;;;;5073411;28;20205;-90
2022/04/04 11:18:00;;;;;;;7.40;6.65;;;6.20;63.30;;;;;;5062909;28;20192;-89
2022/04/04 11:20:38;;;;;;;7.03;6.32;;;6.30;66.50;;;;;;5063628;28;20192;-89
2022/04/04 11:23:10;;;;;;;7.05;6.35;;;6.40;66.30;;;;;;5068734;28;20215;-88
2022/04/04 11:25:58;;;;;;;8.15;7.25;;;6.40;66.20;;;;;;5067627;28;20203;-89
2022/04/04 11:28:31;;;;;;;9.55;5.75;;;6.60;61.50;;;;;;5072249;28;20218;-89
2022/04/04 11:31:05;;;;;;;6.13;5.63;;;6.60;65.20;;;;;;5071298;28;20206;-88
2022/04/04 11:33:34;;;;;;;7.65;6.90;;;6.60;64.30;;;;;;5067899;28;20658;-88
2022/04/04 11:36:08;;;;;;;7.22;6.60;;;6.90;65.80;;;;;;5071085;28;20203;-89
2022/04/04 11:38:38;;;;;;;6.35;5.57;;;7.10;67.70;;;;;;5071713;28;20203;-87
2022/04/04 11:41:14;;;;;;;6.80;6.18;;;7.60;63.20;;;;;;5061638;28;20244;-88
2022/04/04 11:43:42;;;;;;;5.35;4.95;;;;;;;;;;5070147;28;20199;-89
2022/04/04 11:46:19;;;;;;;4.93;4.43;;;7.50;58.80;;;;;;5066086;28;20249;-86
2022/04/04 11:48:51;;;;;;;6.17;5.60;;;7.80;60.00;;;;;;5068086;28;20220;-86
2022/04/04 11:51:20;;;;;;;8.03;6.27;;;7.70;59.40;;;;;;5071572;28;20655;-85
2022/04/04 11:53:47;;;;;;;7.23;6.53;;;7.30;60.50;;;;;;5059101;28;20649;-85
2022/04/04 11:56:21;;;;;;;6.60;6.00;;;6.90;60.50;;;;;;5060700;28;21035;-84
2022/04/04 11:58:51;;;;;;;7.47;6.60;;;7.10;59.60;;;;;;5066844;28;20719;-86
2022/04/04 12:01:18;;;;;;;6.00;5.50;;;6.90;61.40;;;;;;5067938;28;20717;-85
2022/04/04 12:03:49;;;;;;;6.13;5.37;;;6.90;67.80;;;;;;5071754;28;20625;-86
2022/04/04 12:06:16;;;;;;;6.57;6.00;;;6.80;60.90;;;;;;5070972;28;21178;-84
2022/04/04 12:08:45;;;;;;;7.15;6.55;;;6.80;61.60;;;;;;5068292;28;20231;-86
2022/04/04 12:11:13;;;;;;;6.70;6.10;;;;;;;;;;5057317;28;20206;-85
2022/04/04 12:13:53;;;;;;;6.10;5.55;;;7.10;63.80;;;;;;5061291;28;20213;-85
2022/04/04 12:16:21;;;;;;;7.00;6.30;;;7.00;63.30;;;;;;5068319;28;20250;-86
2022/04/04 12:18:54;;;;;;;7.38;6.03;;;6.90;61.60;;;;;;5064328;28;20207;-85
2022/04/04 12:21:22;;;;;;;7.38;6.25;;;7.00;60.40;;;;;;5059016;28;20217;-86
2022/04/04 12:26:35;;;;;;;7.25;5.72;;;7.00;65.00;;;;;;5066329;28;20294;-85
2022/04/04 12:29:09;;;;;;;7.32;6.70;;;7.20;64.90;;;;;;5061123;28;20202;-85
2022/04/04 12:31:37;;;;;;;7.47;6.78;;;6.90;64.10;;;;;;5070154;28;20274;-86
2022/04/04 12:34:06;;;;;;;9.75;6.45;;;6.70;61.70;;;;;;5066408;28;20210;-85
2022/04/04 12:36:38;;;;;;;8.25;6.72;;;6.80;63.30;;;;;;5065141;28;20225;-86
2022/04/04 12:39:08;;;;;;;8.68;6.93;;;6.90;66.20;;;;;;5068663;28;20371;-85
2022/04/04 12:41:42;;;;;;;7.90;7.13;;;7.00;66.20;;;;;;5064740;28;20207;-86
2022/04/04 12:44:10;;;;;;;8.80;7.10;;;7.20;63.40;;;;;;5067940;28;20249;-86
2022/04/04 12:46:38;;;;;;;7.90;7.10;;;7.40;63.50;;;;;;5070044;28;20200;-86
2022/04/04 12:49:12;;;;;;;7.88;7.18;;;7.50;66.60;;;;;;5073045;28;20655;-85
2022/04/04 12:51:40;;;;;;;7.80;7.00;;;7.60;65.40;;;;;;5072730;28;20200;-86
2022/04/04 12:54:08;;;;;;;11.13;7.22;;;7.70;63.60;;;;;;5072468;28;20281;-86
2022/04/04 12:56:49;;;;;;;7.95;7.15;;;7.70;63.20;;;;;;5068094;28;20206;-88
2022/04/04 12:59:16;;;;;;;8.05;7.35;;;8.20;69.10;;;;;;5071560;28;20269;-88
2022/04/04 13:01:45;;;;;;;8.43;7.63;;;8.40;62.40;;;;;;5074925;28;20217;-87
2022/04/04 13:04:20;;;;;;;7.85;7.07;;;7.30;61.90;;;;;;5074519;28;20644;-88
2022/04/04 13:06:54;;;;;;;9.15;7.95;;;7.30;63.90;;;;;;5076139;28;20294;-88
2022/04/04 13:09:28;;;;;;;7.82;6.80;;;7.70;75.30;;;;;;5073814;28;20198;-88
2022/04/04 13:12:00;;;;;;;7.55;6.85;;;8.00;61.80;;;;;;5074015;28;20301;-90
2022/04/04 13:14:28;;;;;;;7.72;6.97;;;7.90;59.20;;;;;;5074701;28;20675;-89
2022/04/04 13:17:10;;;;;;;8.77;7.15;;;8.00;59.30;;;;;;5073150;28;20289;-89
2022/04/04 13:19:41;;;;;;;8.30;6.90;;;;;;;;;;5072342;28;20208;-88
2022/04/04 13:22:08;;;;;;;8.43;6.83;;;;;;;;;;5073528;28;20660;-89
2022/04/04 13:24:36;;;;;;;9.10;7.90;;;8.80;56.80;;;;;;5074242;28;20644;-88
2022/04/04 13:27:04;;;;;;;7.27;6.57;;;;;;;;;;5074691;28;20625;-89
2022/04/04 13:29:31;;;;;;;8.37;6.97;;;;;;;;;;5074076;28;20617;-90
2022/04/04 13:31:59;;;;;;;7.47;6.77;;;;;;;;;;5075328;28;20658;-90
2022/04/04 13:34:28;;;;;;;7.57;6.97;;;10.40;51.10;;;;;;5073953;28;20625;-90